createdAt,value
2023-05-06T00:04:14.427Z,22.60
2023-05-06T00:08:37.515Z,22.60
2023-05-06T00:12:59.263Z,23.53
2023-05-06T00:17:21.075Z,23.33
2023-05-06T00:21:42.971Z,22.20
2023-05-06T00:26:06.187Z,21.37
2023-05-06T00:30:28.090Z,21.57
2023-05-06T00:34:50.311Z,21.90
2023-05-06T00:39:12.042Z,21.33
2023-05-06T00:43:35.171Z,20.83
2023-05-06T00:47:57.317Z,19.73
2023-05-06T00:52:19.897Z,20.73
2023-05-06T00:56:42.080Z,19.43
2023-05-06T01:01:06.029Z,20.57
2023-05-06T01:05:33.068Z,19.73
2023-05-06T01:10:02.098Z,18.77
2023-05-06T01:14:31.667Z,19.90
2023-05-06T01:18:54.848Z,18.80
2023-05-06T01:23:18.679Z,18.97
2023-05-06T01:27:40.430Z,16.87
2023-05-06T01:32:13.992Z,17.47
2023-05-06T01:36:45.657Z,16.80
2023-05-06T01:41:13.173Z,17.07
2023-05-06T01:45:37.308Z,17.73
2023-05-06T01:49:59.939Z,18.93
2023-05-06T01:54:21.880Z,20.20
2023-05-06T01:58:44.934Z,19.37
2023-05-06T02:03:06.738Z,19.87
2023-05-06T02:07:28.691Z,18.90
2023-05-06T02:11:50.382Z,18.60
2023-05-06T02:16:13.564Z,18.07
2023-05-06T02:20:35.574Z,18.50
2023-05-06T02:24:57.301Z,18.53
2023-05-06T02:29:19.232Z,17.50
2023-05-06T02:33:43.819Z,17.40
2023-05-06T02:38:05.894Z,17.03
2023-05-06T02:42:27.898Z,16.67
2023-05-06T02:46:49.629Z,16.30
2023-05-06T02:51:12.991Z,16.57
2023-05-06T02:55:34.770Z,16.17
2023-05-06T02:59:56.533Z,16.87
2023-05-06T03:04:18.291Z,16.33
2023-05-06T03:08:41.383Z,16.07
2023-05-06T03:13:03.156Z,14.60
2023-05-06T03:17:24.997Z,14.63
2023-05-06T03:21:46.943Z,13.83
2023-05-06T03:26:10.215Z,12.37
2023-05-06T03:30:32.244Z,10.13
2023-05-06T03:34:54.007Z,10.13
2023-05-06T03:39:15.871Z,8.67
2023-05-06T03:43:38.907Z,8.50
2023-05-06T03:48:00.716Z,8.33
2023-05-06T03:52:22.866Z,7.10
2023-05-06T03:56:44.658Z,8.13
2023-05-06T04:01:07.718Z,8.93
2023-05-06T04:05:29.480Z,8.83
2023-05-06T04:09:51.295Z,8.67
2023-05-06T04:14:13.265Z,8.27
2023-05-06T04:18:36.433Z,8.47
2023-05-06T04:22:58.241Z,9.17
2023-05-06T04:27:19.978Z,8.10
2023-05-06T04:31:41.758Z,8.17
2023-05-06T04:36:06.155Z,6.70
2023-05-06T04:40:27.989Z,7.53
2023-05-06T04:44:49.880Z,7.00
2023-05-06T04:49:12.506Z,6.23
2023-05-06T04:53:36.000Z,6.33
2023-05-06T04:57:57.744Z,6.20
2023-05-06T05:02:19.716Z,6.07
2023-05-06T05:06:41.547Z,5.90
2023-05-06T05:11:05.845Z,6.07
2023-05-06T05:15:27.695Z,5.43
